tititudorancea.com
Station Historical Data
Daily Summary for March 8, 2019 Units:  Metric    English   Both
« Previous Day
Next Day »
Daily Weekly Monthly Yearly Custom
  High: Low: Average:
Temperature: -17.8 °C 4.6 °C 18.4 °C
Dew Point: -17.8 °C -4.9 °C 1 °C
Humidity: Humidity % 21 % 32 %
Wind Speed: 0 km/h 0 km/h 10.6 km/h
Wind Gust: 0 km/h - -
Wind:- - WNW
Pressure: 0 hPa 1014.4 hPa -
Precipitation: 0 mm    
Historical Graphs
 
 
Ararat weather Find more about Weather in Ararat, AU


 



 


Tabular Data for March 8, 2019
Time Temperature Dew Point Pressure Wind Wind Speed Wind Gust Humidity Rainfall Rate (Hourly)
-17.8 °C -17.8 °C 0 hPa Calm     Humidity % 0 mm
00:04 11.9 °C -0.9 °C 1016.8 hPa NNW 3.7 km/h 2.6 km/h 41 % 0 mm
00:09 11.8 °C -1.1 °C 1016.8 hPa NNW 3.7 km/h 1.6 km/h 41 % 0 mm
00:14 12.2 °C -0.7 °C 1016.5 hPa NNW 3.7 km/h 3.9 km/h 41 % 0 mm
00:19 12.8 °C -1.2 °C 1016.5 hPa NNW 5.6 km/h 2.6 km/h 38 % 0 mm
00:24 13.6 °C -1.2 °C 1016.5 hPa NNW 5.6 km/h 4 km/h 36 % 0 mm
00:29 14.6 °C -1.1 °C 1016.5 hPa NNW 5.6 km/h 4.7 km/h 34 % 0 mm
00:33 15 °C -1.2 °C 1016.5 hPa NNW 5.6 km/h 4.7 km/h 33 % 0 mm
00:49 15.4 °C -1.2 °C 1016.5 hPa NNW 5.6 km/h 3.5 km/h 32 % 0 mm
00:54 15.3 °C -0.9 °C 1016.1 hPa NNW 5.6 km/h 3.2 km/h 33 % 0 mm
00:59 15.2 °C -1 °C 1016.1 hPa NNW 5.6 km/h 3.1 km/h 33 % 0 mm
01:04 15 °C -1.2 °C 1016.1 hPa NNW 3.7 km/h 1.8 km/h 33 % 0 mm
01:09 14.8 °C -0.9 °C 1015.8 hPa NNW 1.9 km/h   34 % 0 mm
01:14 14.8 °C -0.9 °C 1015.8 hPa NNW 5.6 km/h 1.6 km/h 34 % 0 mm
01:19 14.8 °C -0.9 °C 1015.8 hPa NNW 3.7 km/h 2.4 km/h 34 % 0 mm
01:24 14.9 °C -1.3 °C 1015.8 hPa NNW 5.6 km/h 2.7 km/h 33 % 0 mm
01:29 15 °C -1.2 °C 1015.8 hPa NNW 5.6 km/h 3.1 km/h 33 % 0 mm
01:34 15.2 °C -1 °C 1015.8 hPa NNW 7.4 km/h 3.9 km/h 33 % 0 mm
01:39 15.2 °C -1.4 °C 1015.8 hPa NNW 5.6 km/h 4.7 km/h 32 % 0 mm
01:44 15.3 °C -1.3 °C 1016.1 hPa NNW 5.6 km/h 3.1 km/h 32 % 0 mm
01:49 15.3 °C -1.3 °C 1016.1 hPa NNW 5.6 km/h 2.6 km/h 32 % 0 mm
01:54 15.3 °C -1.3 °C 1015.8 hPa NNW 5.6 km/h 3.7 km/h 32 % 0 mm
01:59 15.2 °C -0.9 °C 1015.8 hPa NNW 1.9 km/h 0.5 km/h 33 % 0 mm
02:04 15.1 °C -1.1 °C 1015.8 hPa NNW 5.6 km/h 2.6 km/h 33 % 0 mm
02:09 15 °C -1.2 °C 1015.8 hPa NNW 3.7 km/h 1.3 km/h 33 % 0 mm
02:14 14.8 °C -0.9 °C 1015.8 hPa NNW 5.6 km/h 2.3 km/h 34 % 0 mm
02:19 14.6 °C -1.1 °C 1015.8 hPa NNW 5.6 km/h 3.1 km/h 34 % 0 mm
02:24 14.4 °C -1.2 °C 1015.5 hPa NNW 6.4 km/h 4.7 km/h 34 % 0 mm
02:29 14.2 °C -1.1 °C 1015.5 hPa NNW 7.4 km/h 5.3 km/h 35 % 0 mm
02:34 13.8 °C -1 °C 1015.5 hPa NNW 5.6 km/h 5.3 km/h 36 % 0 mm
02:39 13.5 °C -0.9 °C 1015.5 hPa NNW 5.6 km/h 3.5 km/h 37 % 0 mm
02:44 13.3 °C -1.1 °C 1015.5 hPa NNW 6.4 km/h 3.7 km/h 37 % 0 mm
02:49 13.1 °C -0.9 °C 1015.5 hPa North 5.6 km/h 2.7 km/h 38 % 0 mm
02:54 12.9 °C -1.1 °C 1015.5 hPa NNW 5.6 km/h 3.2 km/h 38 % 0 mm
02:59 12.8 °C -1.2 °C 1015.5 hPa NNW 5.6 km/h 5 km/h 38 % 0 mm
03:04 13 °C -1 °C 1015.5 hPa NNW 7.4 km/h 5.8 km/h 38 % 0 mm
03:09 13.1 °C -0.9 °C 1015.5 hPa NNW 7.4 km/h 3.9 km/h 38 % 0 mm
03:14 13.1 °C -0.9 °C 1015.5 hPa NNW 5.6 km/h 4.5 km/h 38 % 0 mm
03:19 13.2 °C -1.2 °C 1015.5 hPa NNW 8 km/h 5 km/h 37 % 0 mm
03:24 13.4 °C -1 °C 1015.5 hPa NNW 7.4 km/h 7.6 km/h 37 % 0 mm
03:29 13.6 °C -1.2 °C 1015.5 hPa NNW 11.1 km/h 6.3 km/h 36 % 0 mm
03:34 13.7 °C -1.1 °C 1015.5 hPa NNW 9.3 km/h 5.6 km/h 36 % 0 mm
03:39 13.6 °C -1.2 °C 1015.5 hPa NNW 9.3 km/h 4.7 km/h 36 % 0 mm
03:44 13.6 °C -1.2 °C 1015.5 hPa NNW 11.1 km/h 5.8 km/h 36 % 0 mm
03:49 13.8 °C -1.1 °C 1015.5 hPa NNW 7.4 km/h 5.8 km/h 36 % 0 mm
03:54 14.1 °C -1.2 °C 1015.1 hPa NNW 13 km/h 5.8 km/h 35 % 0 mm
03:59 14.3 °C -0.9 °C 1015.1 hPa NNW 11.3 km/h 6.8 km/h 35 % 0 mm
04:04 14.5 °C -1.2 °C 1015.1 hPa NNW 11.1 km/h 8 km/h 34 % 0 mm
04:09 14.6 °C -1.2 °C 1015.1 hPa NNW 9.3 km/h 6 km/h 34 % 0 mm
04:14 14.7 °C -1.1 °C 1015.1 hPa NNW 9.3 km/h 6 km/h 34 % 0 mm
04:19 14.8 °C -1.3 °C 1015.5 hPa North 11.1 km/h 7.4 km/h 33 % 0 mm
04:24 14.9 °C -1.2 °C 1015.5 hPa NNW 9.3 km/h 6 km/h 33 % 0 mm
04:29 15.2 °C -1 °C 1015.5 hPa NNW 9.3 km/h 7.7 km/h 33 % 0 mm
04:34 15.2 °C -1.4 °C 1015.5 hPa NNW 9.3 km/h 6.1 km/h 32 % 0 mm
04:39 15.3 °C -1.3 °C 1015.8 hPa North 11.1 km/h 6.3 km/h 32 % 0 mm
04:44 15.3 °C -1.3 °C 1015.8 hPa NNW 13 km/h 7.9 km/h 32 % 0 mm
04:49 15.3 °C -1.3 °C 1015.8 hPa NNW 9.3 km/h 7.2 km/h 32 % 0 mm
04:54 15.4 °C -1.2 °C 1015.8 hPa NNW 9.3 km/h 4.5 km/h 32 % 0 mm
04:59 15.3 °C -1.3 °C 1015.8 hPa NNW 7.4 km/h 4.2 km/h 32 % 0 mm
05:04 15.3 °C -1.3 °C 1015.8 hPa NNW 5.6 km/h 3.2 km/h 32 % 0 mm
05:09 15.3 °C -0.9 °C 1015.5 hPa NNW 7.4 km/h 4.7 km/h 33 % 0 mm
05:14 15.3 °C -1.3 °C 1015.5 hPa NNW 7.4 km/h 5.8 km/h 32 % 0 mm
05:19 15.2 °C -0.9 °C 1015.5 hPa NNW 6.4 km/h 3.5 km/h 33 % 0 mm
05:24 15.2 °C -0.9 °C 1015.5 hPa NNW 6.4 km/h 4.2 km/h 33 % 0 mm
05:29 15.2 °C -0.9 °C 1015.5 hPa NNW 7.4 km/h 4.8 km/h 33 % 0 mm
05:34 15.2 °C -1 °C 1015.1 hPa NNW 8 km/h 7.9 km/h 33 % 0 mm
05:39 15.1 °C -1.1 °C 1015.5 hPa NNW 6.4 km/h 5.3 km/h 33 % 0 mm
05:44 15 °C -1.2 °C 1015.5 hPa North 9.3 km/h 5.6 km/h 33 % 0 mm
05:49 15 °C -1.2 °C 1015.8 hPa NNW 9.3 km/h 7.4 km/h 33 % 0 mm
05:54 15.1 °C -1.1 °C 1015.5 hPa NNW 11.1 km/h 5.8 km/h 33 % 0 mm
05:59 15.2 °C -1 °C 1015.5 hPa NNW 7.4 km/h 5.8 km/h 33 % 0 mm
06:04 15.3 °C -0.9 °C 1014.8 hPa North 18.5 km/h 11.4 km/h 33 % 0 mm
06:09 15.3 °C -0.9 °C 1015.1 hPa North 9.3 km/h 6.8 km/h 33 % 0 mm
06:14 15.3 °C -0.9 °C 1015.1 hPa North 7.4 km/h 5.8 km/h 33 % 0 mm
06:19 15.3 °C -0.9 °C 1014.8 hPa North 11.1 km/h 6.9 km/h 33 % 0 mm
06:24 15.3 °C -0.5 °C 1014.8 hPa North 6.4 km/h 3.9 km/h 34 % 0 mm
06:29 15.2 °C -0.6 °C 1015.1 hPa North 9.7 km/h 5.8 km/h 34 % 0 mm
06:34 15.1 °C -0.7 °C 1015.1 hPa North 5.6 km/h 2.9 km/h 34 % 0 mm
06:39 15.2 °C -0.6 °C 1015.1 hPa North 11.3 km/h 5.6 km/h 34 % 0 mm
06:44 15.2 °C -0.6 °C 1015.1 hPa North 5.6 km/h 2.4 km/h 34 % 0 mm
06:49 15.2 °C -0.6 °C 1015.5 hPa North 7.4 km/h 5.6 km/h 34 % 0 mm
06:54 15.2 °C -0.6 °C 1015.5 hPa North 9.3 km/h 5.8 km/h 34 % 0 mm
06:59 15.2 °C -0.6 °C 1015.5 hPa North 9.3 km/h 6 km/h 34 % 0 mm
07:04 15.2 °C -0.6 °C 1015.5 hPa North 11.1 km/h 5.1 km/h 34 % 0 mm
07:09 15.2 °C -0.6 °C 1015.5 hPa North 11.1 km/h 6.9 km/h 34 % 0 mm
07:14 15.2 °C -0.6 °C 1015.8 hPa North 5.6 km/h 3.5 km/h 34 % 0 mm
07:19 15.1 °C -0.7 °C 1015.8 hPa North 9.7 km/h 6.9 km/h 34 % 0 mm
07:24 15.1 °C -0.7 °C 1015.8 hPa North 9.7 km/h 7.9 km/h 34 % 0 mm
07:29 15.1 °C -0.7 °C 1015.8 hPa North 9.3 km/h 5.3 km/h 34 % 0 mm
07:34 15.1 °C -0.7 °C 1015.8 hPa North 7.4 km/h 6.3 km/h 34 % 0 mm
07:39 15 °C -0.8 °C 1015.8 hPa North 9.3 km/h 5.5 km/h 34 % 0 mm
07:44 15 °C -0.3 °C 1015.8 hPa North 5.6 km/h 4.2 km/h 35 % 0 mm
07:49 15 °C -0.3 °C 1015.8 hPa North 8 km/h 5.5 km/h 35 % 0 mm
07:54 15 °C -0.3 °C 1016.1 hPa North 9.3 km/h 6.3 km/h 35 % 0 mm
07:59 15 °C -0.3 °C 1016.1 hPa North 7.4 km/h 5.6 km/h 35 % 0 mm
08:04 15 °C -0.3 °C 1016.1 hPa North 7.4 km/h 4.3 km/h 35 % 0 mm
08:09 14.9 °C -0.4 °C 1016.1 hPa North 9.7 km/h 8 km/h 35 % 0 mm
08:14 15 °C -0.3 °C 1015.8 hPa North 14.8 km/h 10.9 km/h 35 % 0 mm
08:19 15.1 °C -0.3 °C 1015.8 hPa North 16.7 km/h 7.1 km/h 35 % 0 mm
08:24 15.2 °C -0.2 °C 1015.8 hPa North 11.3 km/h 8.7 km/h 35 % 0 mm
08:29 15.2 °C -0.2 °C 1015.8 hPa North 11.1 km/h 7.9 km/h 35 % 0 mm
08:34 15.3 °C -0.1 °C 1015.8 hPa North 11.3 km/h 6.1 km/h 35 % 0 mm
08:39 15.4 °C 0 °C 1015.8 hPa North 11.1 km/h 7.2 km/h 35 % 0 mm
08:44 15.5 °C 0.1 °C 1015.8 hPa North 11.1 km/h 11.1 km/h 35 % 0 mm
08:49 15.6 °C -0.2 °C 1015.8 hPa North 14.8 km/h 9.3 km/h 34 % 0 mm
08:54 15.8 °C -0.1 °C 1016.1 hPa North 11.1 km/h 7.6 km/h 34 % 0 mm
08:59 15.8 °C 0 °C 1015.8 hPa North 14.8 km/h 10.3 km/h 34 % 0 mm
09:04 15.9 °C 0.1 °C 1015.8 hPa North 16.7 km/h 10.8 km/h 34 % 0 mm
09:09 16.1 °C 0.2 °C 1016.1 hPa North 13 km/h 6.6 km/h 34 % 0 mm
09:14 16.2 °C 0.3 °C 1016.1 hPa North 13 km/h 8.7 km/h 34 % 0 mm
09:19 16.3 °C 0.4 °C 1016.1 hPa North 9.3 km/h 7.7 km/h 34 % 0 mm
09:24 16.5 °C 0.6 °C 1016.1 hPa North 9.3 km/h 8 km/h 34 % 0 mm
09:29 16.8 °C 0.9 °C 1016.1 hPa North 11.3 km/h 6 km/h 34 % 0 mm
09:34 17.2 °C 0.7 °C 1016.5 hPa North 7.4 km/h 6.4 km/h 33 % 0 mm
09:39 17.4 °C 1 °C 1016.5 hPa North 11.3 km/h 4.8 km/h 33 % 0 mm
09:44 17.7 °C 0.8 °C 1016.5 hPa North 13 km/h 8.7 km/h 32 % 0 mm
09:49 18 °C 1.1 °C 1016.5 hPa North 9.3 km/h 5.6 km/h 32 % 0 mm
09:54 18.4 °C 1 °C 1016.5 hPa NNW 9.7 km/h 8.9 km/h 31 % 0 mm
09:59 18.7 °C 0.8 °C 1016.5 hPa NNW 9.7 km/h 8.4 km/h 30 % 0 mm
10:04 19.1 °C 1.1 °C 1016.5 hPa North 13 km/h 9 km/h 30 % 0 mm
10:09 19.5 °C 0.5 °C 1016.5 hPa North 14.8 km/h 9.5 km/h 28 % 0 mm
10:14 20 °C 0.9 °C 1016.5 hPa NNW 18.5 km/h 7.9 km/h 28 % 0 mm
10:19 20.4 °C 1.3 °C 1016.5 hPa North 14.8 km/h 8.5 km/h 28 % 0 mm
10:24 20.4 °C 0.7 °C 1016.5 hPa North 18.5 km/h 12.1 km/h 27 % 0 mm
10:29 20.4 °C 1.3 °C 1016.5 hPa North 11.1 km/h 4.8 km/h 28 % 0 mm
10:34 20.1 °C 1 °C 1016.5 hPa NNW 14.8 km/h 10.8 km/h 28 % 0 mm
10:39 20.2 °C 1.1 °C 1016.5 hPa North 14.5 km/h 8.7 km/h 28 % 0 mm
10:44 20.3 °C 1.2 °C 1016.5 hPa North 16.7 km/h 8.5 km/h 28 % 0 mm
10:49 20.3 °C 1.2 °C 1016.5 hPa North 14.8 km/h 11.6 km/h 28 % 0 mm
10:54 20.4 °C 0.7 °C 1016.5 hPa NNW 18.5 km/h 9.2 km/h 27 % 0 mm
10:59 20.6 °C 1.4 °C 1016.1 hPa NNW 13 km/h 5 km/h 28 % 0 mm
11:04 20.9 °C 1.7 °C 1016.5 hPa North 16.1 km/h 8.9 km/h 28 % 0 mm
11:09 21 °C 1.3 °C 1016.5 hPa NNW 13 km/h 9.3 km/h 27 % 0 mm
11:14 21.1 °C 1.4 °C 1016.5 hPa North 18.5 km/h 11.1 km/h 27 % 0 mm
11:19 21.1 °C 1.4 °C 1016.5 hPa NW 18.5 km/h 11.3 km/h 27 % 0 mm
11:24 21.2 °C 1.4 °C 1016.1 hPa NW 18.5 km/h 7.9 km/h 27 % 0 mm
11:29 21.2 °C 1.4 °C 1016.5 hPa NNW 13 km/h 9.5 km/h 27 % 0 mm
11:34 21.4 °C 1.1 °C 1016.5 hPa North 18.5 km/h 10.8 km/h 26 % 0 mm
11:39 21.5 °C 1.2 °C 1016.1 hPa NNW 12.9 km/h 8 km/h 26 % 0 mm
11:44 21.5 °C 1.2 °C 1016.1 hPa NW 18.5 km/h 9 km/h 26 % 0 mm
11:49 21.6 °C 1.2 °C 1016.1 hPa NNW 22.2 km/h 13.8 km/h 26 % 0 mm
11:54 21.4 °C 1.1 °C 1016.1 hPa NW 19.3 km/h 10.1 km/h 26 % 0 mm
11:59 21.3 °C 1.1 °C 1016.1 hPa NNW 18.5 km/h 10.6 km/h 26 % 0 mm
12:04 21.6 °C 1.7 °C 1016.1 hPa NNW 11.1 km/h 7.6 km/h 27 % 0 mm
12:09 21.7 °C 1.4 °C 1015.8 hPa NNW 9.3 km/h 6.6 km/h 26 % 0 mm
12:14 22.3 °C 1.3 °C 1015.8 hPa NNW 14.8 km/h 11.6 km/h 25 % 0 mm
12:19 22.8 °C 1.2 °C 1015.8 hPa NNW 16.7 km/h 11.3 km/h 24 % 0 mm
12:24 22.9 °C 1.3 °C 1015.8 hPa NW 14.8 km/h 12.1 km/h 24 % 0 mm
12:29 22.8 °C 1.2 °C 1015.8 hPa NNW 14.8 km/h 10.8 km/h 24 % 0 mm
12:34 22.7 °C 1.6 °C 1015.8 hPa NW 25.9 km/h 11.3 km/h 25 % 0 mm
12:39 22.8 °C 1.7 °C 1015.8 hPa NNW 14.8 km/h 10.9 km/h 25 % 0 mm
12:44 23 °C 1.9 °C 1015.8 hPa North 8 km/h 4 km/h 25 % 0 mm
12:49 23.3 °C 1.6 °C 1015.5 hPa North 18.5 km/h 9.5 km/h 24 % 0 mm
12:54 23.2 °C 0.9 °C 1015.5 hPa NNW 18.5 km/h 9.2 km/h 23 % 0 mm
12:59 23.1 °C 1.4 °C 1015.5 hPa NNW 14.8 km/h 8.4 km/h 24 % 0 mm
13:04 23.2 °C 1.5 °C 1015.5 hPa NNW 9.3 km/h 5.1 km/h 24 % 0 mm
13:09 23.3 °C 1 °C 1015.5 hPa NW 16.7 km/h 6.8 km/h 23 % 0 mm
13:14 23.4 °C 1.1 °C 1015.5 hPa NW 14.8 km/h 10.9 km/h 23 % 0 mm
13:19 23.6 °C 1.2 °C 1015.5 hPa NW 18.5 km/h 11.6 km/h 23 % 0 mm
13:24 23.7 °C 1.3 °C 1015.1 hPa NW 7.4 km/h 4.7 km/h 23 % 0 mm
13:29 23.7 °C 1.3 °C 1015.1 hPa NNW 16.7 km/h 7.4 km/h 23 % 0 mm
13:34 23.8 °C 0.8 °C 1015.1 hPa NNW 14.8 km/h 7.4 km/h 22 % 0 mm
13:39 23.9 °C 1.5 °C 1015.1 hPa North 12.9 km/h 6.4 km/h 23 % 0 mm
13:44 23.9 °C 0.9 °C 1015.1 hPa North 13 km/h 5.8 km/h 22 % 0 mm
13:49 23.8 °C 1.4 °C 1015.1 hPa North 16.1 km/h 9.5 km/h 23 % 0 mm
13:54 23.9 °C 1.5 °C 1015.1 hPa NW 14.8 km/h 9.2 km/h 23 % 0 mm
13:59 23.9 °C 0.9 °C 1015.1 hPa NW 14.5 km/h 9.8 km/h 22 % 0 mm
14:04 24 °C 1.6 °C 1015.1 hPa WNW 13 km/h 5.5 km/h 23 % 0 mm
14:09 23.9 °C 0.9 °C 1015.1 hPa NNW 18.5 km/h 7.9 km/h 22 % 0 mm
14:14 23.9 °C 0.9 °C 1015.1 hPa North 9.7 km/h 7.7 km/h 22 % 0 mm
14:19 23.9 °C 0.3 °C 1015.1 hPa NW 13 km/h 7.4 km/h 21 % 0 mm
14:24 24.2 °C 1.1 °C 1014.8 hPa NW 11.1 km/h 2.9 km/h 22 % 0 mm
14:29 24.2 °C 1.2 °C 1014.8 hPa NNW 14.8 km/h 8.7 km/h 22 % 0 mm
14:34 24.2 °C 0.4 °C 1014.8 hPa NNW 9.3 km/h 8.5 km/h 21 % 0 mm
14:39 24.1 °C 0.4 °C 1015.1 hPa NW 18.5 km/h 12.1 km/h 21 % 0 mm
14:44 23.9 °C 0.3 °C 1015.1 hPa NW 14.5 km/h 12.2 km/h 21 % 0 mm
14:49 23.8 °C 0.2 °C 1015.1 hPa North 16.7 km/h 14.3 km/h 21 % 0 mm
14:54 23.8 °C 0.1 °C 1015.1 hPa NW 18.5 km/h 11.6 km/h 21 % 0 mm
14:59 23.8 °C 0.8 °C 1015.1 hPa North 16.7 km/h 11.1 km/h 22 % 0 mm
15:04 23.9 °C 0.9 °C 1015.1 hPa WNW 16.7 km/h 9 km/h 22 % 0 mm
15:09 24.1 °C 0.4 °C 1014.8 hPa WNW 16.1 km/h 10.1 km/h 21 % 0 mm
15:14 24.2 °C 0.4 °C 1014.8 hPa NW 13 km/h 9.2 km/h 21 % 0 mm
15:19 24.1 °C 1.1 °C 1015.1 hPa North 20.4 km/h 11.1 km/h 22 % 0 mm
15:24 23.9 °C 0.9 °C 1014.8 hPa North 9.7 km/h 12.9 km/h 22 % 0 mm
15:29 23.9 °C 0.9 °C 1014.8 hPa North 9.3 km/h 7.6 km/h 22 % 0 mm
15:34 24 °C 0.9 °C 1014.8 hPa North 7.4 km/h 4.3 km/h 22 % 0 mm
15:39 24.1 °C 0.4 °C 1014.4 hPa North 9.3 km/h 6.9 km/h 21 % 0 mm
15:44 24.2 °C 0.4 °C 1014.4 hPa North 5.6 km/h 0.6 km/h 21 % 0 mm
15:49 24.2 °C 0.4 °C 1014.4 hPa North 7.4 km/h 5 km/h 21 % 0 mm
15:54 24.1 °C 0.4 °C 1014.4 hPa WNW 16.7 km/h 10.1 km/h 21 % 0 mm
15:59 24.1 °C 0.3 °C 1014.4 hPa WNW 5.6 km/h 5.3 km/h 21 % 0 mm
16:04 24 °C 0.3 °C 1014.4 hPa WNW 13 km/h 9 km/h 21 % 0 mm
16:09 24 °C 0.9 °C 1014.4 hPa WNW 13 km/h 6.6 km/h 22 % 0 mm
16:14 24 °C 0.9 °C 1014.4 hPa WNW 9.7 km/h 6.3 km/h 22 % 0 mm
16:19 24.1 °C 1 °C 1014.8 hPa WNW 11.1 km/h 9.5 km/h 22 % 0 mm
16:24 24.1 °C 0.3 °C 1014.4 hPa WNW 7.4 km/h 5.6 km/h 21 % 0 mm
16:29 24.1 °C 0.4 °C 1014.4 hPa WNW 9.3 km/h 4.5 km/h 21 % 0 mm
16:34 24.2 °C 0.4 °C 1014.4 hPa North 9.7 km/h 7.4 km/h 21 % 0 mm
16:39 24.3 °C 0.6 °C 1014.4 hPa WNW 5.6 km/h 3.9 km/h 21 % 0 mm
16:44 24.3 °C 0.6 °C 1014.4 hPa WNW 1.9 km/h 1.3 km/h 21 % 0 mm
16:49 24.3 °C 0.6 °C 1014.4 hPa WNW 5.6 km/h 2.3 km/h 21 % 0 mm
16:54 24.4 °C 0.6 °C 1014.4 hPa WNW 8 km/h 3.4 km/h 21 % 0 mm
16:59 24.3 °C 0.6 °C 1014.4 hPa WNW 5.6 km/h 4 km/h 21 % 0 mm
17:04 24.3 °C 0.6 °C 1014.4 hPa North 7.4 km/h 6 km/h 21 % 0 mm
17:09 24.2 °C 0.5 °C 1014.4 hPa North 14.8 km/h 9.3 km/h 21 % 0 mm
17:14 24.1 °C 1 °C 1014.4 hPa North 9.3 km/h 6.9 km/h 22 % 0 mm
17:19 24 °C 0.3 °C 1014.4 hPa West 6.4 km/h 6.6 km/h 21 % 0 mm
17:24 24 °C 0.9 °C 1014.4 hPa West 9.7 km/h 3.9 km/h 22 % 0 mm
17:29 24 °C 0.9 °C 1014.4 hPa West 8 km/h 4.5 km/h 22 % 0 mm
17:34 23.9 °C 0.9 °C 1014.4 hPa West 13 km/h 10.5 km/h 22 % 0 mm
17:39 23.7 °C 1.3 °C 1014.4 hPa West 13 km/h 5.8 km/h 23 % 0 mm
17:44 23.6 °C 1.2 °C 1014.4 hPa WSW 9.3 km/h 5.6 km/h 23 % 0 mm
17:49 23.5 °C 1.2 °C 1014.4 hPa WSW 7.4 km/h 5.8 km/h 23 % 0 mm
17:54 23.4 °C 1.1 °C 1014.4 hPa SW 18.5 km/h 10.1 km/h 23 % 0 mm
17:59 23.3 °C 0.3 °C 1014.8 hPa SW 14.8 km/h 11.6 km/h 22 % 0 mm
18:04 23.2 °C 0.9 °C 1014.8 hPa SW 11.3 km/h 9.5 km/h 23 % 0 mm
18:09 23.1 °C 0.8 °C 1014.8 hPa SW 13 km/h 7.6 km/h 23 % 0 mm
18:14 23.1 °C 1.4 °C 1014.8 hPa SSW 17.7 km/h 5.1 km/h 24 % 0 mm
18:19 22.9 °C 0.7 °C 1015.1 hPa SSW 18.5 km/h 11.3 km/h 23 % 0 mm
18:24 22.8 °C 1.2 °C 1015.1 hPa SSW 22.2 km/h 15.3 km/h 24 % 0 mm
18:29 22.6 °C 2.1 °C 1015.1 hPa SSE 24.1 km/h 15.3 km/h 26 % 0 mm
18:34 22.1 °C 2.7 °C 1015.1 hPa SSW 20.4 km/h 15.4 km/h 28 % 0 mm
18:39 21.7 °C 3.3 °C 1015.1 hPa South 18.5 km/h 10 km/h 30 % 0 mm
18:44 21.3 °C 3.9 °C 1015.1 hPa South 20.9 km/h 15.3 km/h 32 % 0 mm
18:49 21 °C 4.1 °C 1015.1 hPa SSE 14.8 km/h 9.8 km/h 33 % 0 mm
18:54 20.8 °C 4.8 °C 1015.1 hPa South 16.1 km/h 12.7 km/h 35 % 0 mm
18:59 20.7 °C 4.7 °C 1015.1 hPa SSE 14.8 km/h 10.5 km/h 35 % 0 mm
19:04 20.6 °C 5.8 °C 1015.1 hPa SSE 16.7 km/h 12.2 km/h 38 % 0 mm
19:09 20.4 °C 5.9 °C 1015.5 hPa South 9.7 km/h 5.6 km/h 39 % 0 mm
19:14 20.3 °C 6.2 °C 1015.5 hPa South 20.4 km/h 9.5 km/h 40 % 0 mm
19:19 20.1 °C 6.4 °C 1015.8 hPa SSE 13 km/h 10.9 km/h 41 % 0 mm
19:24 20 °C 6.7 °C 1015.5 hPa SSE 14.8 km/h 8.9 km/h 42 % 0 mm
19:29 19.9 °C 6.6 °C 1015.8 hPa SSE 18.5 km/h 11.6 km/h 42 % 0 mm
19:34 19.7 °C 6.8 °C 1015.8 hPa SSE 14.8 km/h 10 km/h 43 % 0 mm
19:39 19.6 °C 6.7 °C 1015.8 hPa SSE 11.1 km/h 8.7 km/h 43 % 0 mm
19:44 19.5 °C 6.6 °C 1015.8 hPa SSE 11.1 km/h 11.3 km/h 43 % 0 mm
19:49 19.4 °C 6.8 °C 1015.8 hPa SSE 11.3 km/h 8.5 km/h 44 % 0 mm
19:54 19.3 °C 7.1 °C 1015.8 hPa SSE 13 km/h 7.6 km/h 45 % 0 mm
19:59 19.1 °C 7.2 °C 1016.1 hPa SSE 9.7 km/h 3.9 km/h 46 % 0 mm
20:04 19 °C 7.1 °C 1016.1 hPa SSE 7.4 km/h 5.8 km/h 46 % 0 mm
20:09 18.9 °C 7 °C 1016.1 hPa SSE 5.6 km/h 1.8 km/h 46 % 0 mm
20:14 18.8 °C 7.2 °C 1016.1 hPa SSE 7.4 km/h 1 km/h 47 % 0 mm
20:19 18.7 °C 7.1 °C 1016.1 hPa SSE 6.4 km/h 2.3 km/h 47 % 0 mm
20:24 18.6 °C 7.1 °C 1015.8 hPa SSE 11.1 km/h 5.1 km/h 47 % 0 mm
20:29 18.6 °C 7.3 °C 1016.1 hPa SSE 9.3 km/h 4.2 km/h 48 % 0 mm
20:34 18.4 °C 7.2 °C 1016.1 hPa SSE 9.3 km/h 3.9 km/h 48 % 0 mm
20:39 18.3 °C 7.1 °C 1016.1 hPa SSE 9.3 km/h 0.6 km/h 48 % 0 mm
20:41 18.3 °C 7.4 °C 1016.5 hPa SSE 1.9 km/h 0.3 km/h 49 % 0 mm
22:07 4.6 °C 2.3 °C 1022.2 hPa Calm   29 km/h 85 % 0 mm
22:15 4.6 °C -4.9 °C 1017.2 hPa Calm     50 % 0 mm
22:20 4.6 °C -4.9 °C 1017.2 hPa Calm     50 % 0 mm
22:25 18.2 °C 6.4 °C 1017.2 hPa SSE 4.8 km/h 9.7 km/h 46 % 0 mm
22:30 18.2 °C 6.3 °C 1017.2 hPa SSE 3.2 km/h 29 km/h 46 % 0 mm
22:35 18.2 °C 6.3 °C 1017.2 hPa SSE 8 km/h 11.3 km/h 46 % 0 mm
22:40 18.2 °C 6.3 °C 1017.2 hPa SSE 8 km/h 9.7 km/h 46 % 0 mm
22:49 18.2 °C 6.3 °C 1017.2 hPa SSE 7.4 km/h 6.3 km/h 46 % 0 mm
22:54 18.1 °C 6.3 °C 1016.8 hPa SSE 7.4 km/h 5.8 km/h 46 % 0 mm
22:59 18.1 °C 6.3 °C 1016.8 hPa SSE 11.1 km/h 6.6 km/h 46 % 0 mm
23:04 18.1 °C 6.6 °C 1016.8 hPa SSE 11.1 km/h 5.5 km/h 47 % 0 mm
23:09 18 °C 6.5 °C 1016.5 hPa SSE 9.3 km/h 4.7 km/h 47 % 0 mm
23:14 17.9 °C 6.4 °C 1016.5 hPa SSE 9.3 km/h 5.5 km/h 47 % 0 mm
23:19 17.8 °C 6.3 °C 1016.5 hPa SSE 11.1 km/h 5.3 km/h 47 % 0 mm
23:24 17.7 °C 6.2 °C 1016.5 hPa SSE 7.4 km/h 7.4 km/h 47 % 0 mm
23:29 17.5 °C 6.3 °C 1016.5 hPa SSE 7.4 km/h 6.4 km/h 48 % 0 mm
23:34 17.4 °C 6.3 °C 1016.5 hPa SSE 11.3 km/h 6.1 km/h 48 % 0 mm
23:39 17.3 °C 6.5 °C 1016.5 hPa SSE 9.3 km/h 7.9 km/h 49 % 0 mm
23:44 17.3 °C 6.4 °C 1016.5 hPa SSE 9.7 km/h 7.2 km/h 49 % 0 mm
23:49 17.2 °C 6.3 °C 1016.5 hPa SSE 7.4 km/h 6.8 km/h 49 % 0 mm
23:54 17.1 °C 6.6 °C 1016.5 hPa SSE 5.6 km/h 3.4 km/h 50 % 0 mm
23:59 17.1 °C 6.6 °C 1016.5 hPa North 6.4 km/h 4.8 km/h 50 % 0 mm
Ararat Weather
Compliments of Weather Underground - 2.25 mb
Click here to send mail.


ABOUT

Live weather data from Ararat, Victoria, Australia, 3377
Data uploaded from Cumulus every 5 minutes to Weather Underground.
This site then downloads the raw data for formatting and display.
Metric and imperial data can be displayed. Graphs and historical data available.
Includes Sun and Moon times and rain image live from BOM.

Check out Ararat Weather on Facebook, Twitter and Google +

Help support ongoing costs by checking out the ads





Follow @AraratWeather